createdAt,value
2018-10-19T00:02:11.751Z,101808.00
2018-10-19T00:08:15.500Z,101808.00
2018-10-19T00:14:19.292Z,101795.00
2018-10-19T00:20:27.163Z,101797.00
2018-10-19T00:26:30.887Z,101800.00
2018-10-19T00:32:34.452Z,101799.00
2018-10-19T00:38:38.054Z,101795.00
2018-10-19T00:44:41.724Z,101785.00
2018-10-19T00:50:45.684Z,101786.00
2018-10-19T00:56:49.056Z,101782.00
2018-10-19T01:02:52.717Z,101779.00
2018-10-19T01:08:56.436Z,101779.00
2018-10-19T01:14:59.930Z,101788.00
2018-10-19T01:21:03.698Z,101779.00
2018-10-19T01:27:07.570Z,101760.00
2018-10-19T01:33:11.045Z,101768.00
2018-10-19T01:39:14.690Z,101768.00
2018-10-19T01:45:18.434Z,101771.00
2018-10-19T01:51:23.114Z,101764.00
2018-10-19T01:57:26.589Z,101769.00
2018-10-19T02:03:31.075Z,101769.00
2018-10-19T02:09:34.742Z,101773.00
2018-10-19T02:15:38.486Z,101783.00
2018-10-19T02:21:41.941Z,101774.00
2018-10-19T02:27:46.134Z,101776.00
2018-10-19T02:33:50.139Z,101779.00
2018-10-19T02:39:53.599Z,101771.00
2018-10-19T02:45:57.655Z,101781.00
2018-10-19T02:52:01.170Z,101771.00
2018-10-19T02:58:04.675Z,101778.00
2018-10-19T03:04:08.447Z,101782.00
2018-10-19T03:10:11.827Z,101777.00
2018-10-19T03:16:17.537Z,101785.00
2018-10-19T03:22:22.270Z,101772.00
2018-10-19T03:28:25.799Z,101769.00
2018-10-19T03:34:29.382Z,101766.00
2018-10-19T03:40:33.090Z,101768.00
2018-10-19T03:46:36.538Z,101766.00
2018-10-19T03:52:40.102Z,101761.00
2018-10-19T03:58:43.523Z,101759.00
2018-10-19T04:04:47.343Z,101771.00
2018-10-19T04:10:51.123Z,101781.00
2018-10-19T04:16:54.879Z,101789.00
2018-10-19T04:23:07.610Z,101791.00
2018-10-19T04:29:11.337Z,101777.00
2018-10-19T04:35:15.017Z,101789.00
2018-10-19T04:41:18.823Z,101783.00
2018-10-19T04:47:22.213Z,101786.00
2018-10-19T04:53:25.999Z,101785.00
2018-10-19T04:59:29.583Z,101784.00
2018-10-19T05:05:33.753Z,101794.00
2018-10-19T05:11:37.678Z,101787.00
2018-10-19T05:17:41.509Z,101791.00
2018-10-19T05:23:45.330Z,101788.00
2018-10-19T05:29:48.775Z,101803.00
2018-10-19T05:35:52.589Z,101794.00
2018-10-19T05:41:56.048Z,101800.00
2018-10-19T05:47:59.513Z,101792.00
2018-10-19T05:54:02.988Z,101801.00
2018-10-19T06:00:09.036Z,101795.00
2018-10-19T06:06:12.791Z,101802.00
2018-10-19T06:12:16.941Z,101804.00
2018-10-19T06:18:20.731Z,101798.00
2018-10-19T06:24:24.741Z,101812.00
2018-10-19T06:30:28.199Z,101820.00
2018-10-19T06:36:31.648Z,101824.00
2018-10-19T06:42:35.530Z,101822.00
2018-10-19T06:48:39.084Z,101816.00
2018-10-19T06:54:43.338Z,101825.00
2018-10-19T07:00:46.825Z,101826.00
2018-10-19T07:06:50.531Z,101817.00
2018-10-19T07:12:54.348Z,101819.00
2018-10-19T07:18:59.856Z,101821.00
2018-10-19T07:25:03.682Z,101821.00
2018-10-19T07:31:07.364Z,101823.00
2018-10-19T07:37:10.948Z,101816.00
2018-10-19T07:43:14.554Z,101826.00
2018-10-19T07:49:18.738Z,101832.00
2018-10-19T07:55:23.141Z,101842.00
2018-10-19T08:01:26.728Z,101845.00
2018-10-19T08:07:30.074Z,101842.00
2018-10-19T08:13:34.016Z,101854.00
2018-10-19T08:19:38.699Z,101851.00
2018-10-19T08:25:42.803Z,101863.00
2018-10-19T08:31:46.450Z,101872.00
2018-10-19T08:37:50.436Z,101876.00
2018-10-19T08:43:54.055Z,101862.00
2018-10-19T08:49:58.537Z,101874.00
2018-10-19T08:56:02.227Z,101889.00
2018-10-19T09:02:06.677Z,101890.00
2018-10-19T09:08:10.256Z,101881.00
2018-10-19T09:14:31.000Z,101887.00
2018-10-19T09:20:34.541Z,101881.00
2018-10-19T09:26:38.384Z,101877.00
2018-10-19T09:32:43.226Z,101864.00
2018-10-19T09:38:46.744Z,101865.00
2018-10-19T09:44:50.194Z,101855.00
2018-10-19T09:50:53.700Z,101863.00
2018-10-19T09:56:57.473Z,101863.00
2018-10-19T10:03:01.875Z,101855.00
2018-10-19T10:09:11.001Z,101845.00
2018-10-19T10:15:14.881Z,101851.00
2018-10-19T10:21:18.386Z,101846.00
2018-10-19T10:27:21.901Z,101846.00
2018-10-19T10:33:25.897Z,101836.00
2018-10-19T10:39:29.507Z,101836.00
2018-10-19T10:45:32.999Z,101835.00
2018-10-19T10:51:37.829Z,101828.00
2018-10-19T10:57:41.587Z,101807.00
2018-10-19T11:03:44.957Z,101811.00
2018-10-19T11:09:48.485Z,101804.00
2018-10-19T11:15:52.573Z,101806.00
2018-10-19T11:21:56.186Z,101781.00
2018-10-19T11:27:59.831Z,101787.00
2018-10-19T11:34:03.232Z,101798.00
2018-10-19T11:40:28.286Z,101799.00
2018-10-19T11:46:33.921Z,101789.00
2018-10-19T11:52:37.399Z,101794.00
2018-10-19T11:58:40.783Z,101796.00
2018-10-19T12:04:44.300Z,101786.00
2018-10-19T12:10:47.803Z,101783.00
2018-10-19T12:16:51.927Z,101771.00
2018-10-19T12:22:55.249Z,101768.00
2018-10-19T12:28:59.392Z,101782.00
2018-10-19T12:35:02.804Z,101778.00
2018-10-19T12:41:06.355Z,101771.00
2018-10-19T12:47:42.770Z,101766.00
2018-10-19T12:53:47.676Z,101766.00
2018-10-19T12:59:51.292Z,101757.00
2018-10-19T13:05:54.648Z,101759.00
2018-10-19T13:11:59.099Z,101760.00
2018-10-19T13:18:02.501Z,101749.00
2018-10-19T13:24:06.008Z,101751.00
2018-10-19T13:30:09.477Z,101756.00
2018-10-19T13:36:12.843Z,101748.00
2018-10-19T13:42:16.111Z,101736.00
2018-10-19T13:48:21.091Z,101734.00
2018-10-19T13:54:24.650Z,101738.00
2018-10-19T14:00:28.308Z,101739.00
2018-10-19T14:06:31.608Z,101719.00
2018-10-19T14:12:35.392Z,101721.00
2018-10-19T14:18:38.786Z,101712.00
2018-10-19T14:24:42.968Z,101719.00
2018-10-19T14:30:46.354Z,101713.00
2018-10-19T14:36:49.910Z,101714.00
2018-10-19T14:42:53.237Z,101711.00
2018-10-19T14:48:56.734Z,101708.00
2018-10-19T14:55:00.163Z,101710.00
2018-10-19T15:01:04.311Z,101712.00
2018-10-19T15:07:07.851Z,101712.00
2018-10-19T15:13:11.306Z,101725.00
2018-10-19T15:19:14.673Z,101729.00
2018-10-19T15:25:17.986Z,101726.00
2018-10-19T15:31:21.294Z,101735.00
2018-10-19T15:37:25.162Z,101738.00
2018-10-19T15:43:28.494Z,101729.00
2018-10-19T15:49:32.025Z,101745.00
2018-10-19T15:55:35.818Z,101758.00
2018-10-19T16:01:39.116Z,101769.00
2018-10-19T16:07:43.943Z,101771.00
2018-10-19T16:13:47.555Z,101777.00
2018-10-19T16:19:50.897Z,101775.00
2018-10-19T16:25:54.438Z,101776.00
2018-10-19T16:31:57.930Z,101781.00
2018-10-19T16:38:01.327Z,101787.00
2018-10-19T16:44:06.468Z,101776.00
2018-10-19T16:50:09.830Z,101769.00
2018-10-19T16:56:13.265Z,101781.00
2018-10-19T17:02:17.628Z,101780.00
2018-10-19T17:08:20.978Z,101791.00
2018-10-19T17:14:24.349Z,101808.00
2018-10-19T17:20:34.279Z,101796.00
2018-10-19T17:26:37.929Z,101825.00
2018-10-19T17:32:41.432Z,101834.00
2018-10-19T17:38:44.670Z,101847.00
2018-10-19T17:44:49.383Z,101844.00
2018-10-19T17:50:52.884Z,101848.00
2018-10-19T17:56:56.416Z,101863.00
2018-10-19T18:03:00.206Z,101871.00
2018-10-19T18:09:06.751Z,101879.00
2018-10-19T18:15:11.179Z,101886.00
2018-10-19T18:21:14.539Z,101896.00
2018-10-19T18:27:18.058Z,101905.00
2018-10-19T18:33:21.482Z,101911.00
2018-10-19T18:39:24.826Z,101908.00
2018-10-19T18:45:28.167Z,101915.00
2018-10-19T18:51:31.555Z,101913.00
2018-10-19T18:57:34.958Z,101920.00
2018-10-19T19:03:38.985Z,101921.00
2018-10-19T19:09:49.268Z,101922.00
2018-10-19T19:15:52.809Z,101931.00
2018-10-19T19:21:56.217Z,101937.00
2018-10-19T19:28:00.142Z,101913.00
2018-10-19T19:34:09.130Z,101927.00
2018-10-19T19:40:12.596Z,101912.00
2018-10-19T19:46:15.967Z,101936.00
2018-10-19T19:52:20.743Z,101951.00
2018-10-19T19:58:24.653Z,101952.00
2018-10-19T20:04:29.178Z,101954.00
2018-10-19T20:10:33.198Z,101944.00
2018-10-19T20:16:36.888Z,101898.00
2018-10-19T20:22:41.262Z,101938.00
2018-10-19T20:28:44.610Z,101941.00
2018-10-19T20:34:47.966Z,101958.00
2018-10-19T20:40:51.819Z,101971.00
2018-10-19T20:46:55.179Z,101974.00
2018-10-19T20:52:59.659Z,101977.00
2018-10-19T20:59:03.149Z,101981.00
2018-10-19T21:05:08.657Z,101988.00
2018-10-19T21:11:12.833Z,101988.00
2018-10-19T21:17:16.292Z,101984.00
2018-10-19T21:23:20.476Z,101977.00
2018-10-19T21:29:23.990Z,101989.00
2018-10-19T21:35:30.833Z,101992.00
2018-10-19T21:41:34.892Z,102000.00
2018-10-19T21:47:38.370Z,102000.00
2018-10-19T21:53:41.882Z,102002.00
2018-10-19T21:59:46.807Z,101985.00
2018-10-19T22:05:50.300Z,102001.00
2018-10-19T22:11:54.065Z,102008.00
2018-10-19T22:17:57.823Z,102014.00
2018-10-19T22:24:02.015Z,102025.00
2018-10-19T22:30:07.408Z,102021.00
2018-10-19T22:36:10.757Z,102010.00
2018-10-19T22:42:14.265Z,102037.00
2018-10-19T22:48:17.693Z,102031.00
2018-10-19T22:54:21.124Z,102051.00
2018-10-19T23:00:24.861Z,102059.00
2018-10-19T23:06:28.438Z,102058.00
2018-10-19T23:12:32.547Z,102061.00
2018-10-19T23:18:36.234Z,102062.00
2018-10-19T23:24:39.561Z,102055.00
2018-10-19T23:30:42.856Z,102062.00
2018-10-19T23:36:46.342Z,102057.00
2018-10-19T23:42:49.767Z,102059.00
2018-10-19T23:48:53.126Z,102057.00
2018-10-19T23:54:57.187Z,102044.00
